sensor_id;sensor_type;location;lat;lon;timestamp;P1;durP1;ratioP1;P2;durP2;ratioP2
8538;SDS011;4307;53.868;11.680;2022-10-13T00:00:02;3.20;;;2.00;;
8538;SDS011;4307;53.868;11.680;2022-10-13T00:02:29;4.27;;;2.40;;
8538;SDS011;4307;53.868;11.680;2022-10-13T00:04:57;3.07;;;1.70;;
8538;SDS011;4307;53.868;11.680;2022-10-13T00:07:24;4.40;;;2.43;;
8538;SDS011;4307;53.868;11.680;2022-10-13T00:09:51;6.13;;;2.27;;
8538;SDS011;4307;53.868;11.680;2022-10-13T00:12:17;6.07;;;2.40;;
8538;SDS011;4307;53.868;11.680;2022-10-13T00:14:44;4.00;;;2.30;;
8538;SDS011;4307;53.868;11.680;2022-10-13T00:17:10;5.77;;;2.00;;
8538;SDS011;4307;53.868;11.680;2022-10-13T00:19:37;4.53;;;2.10;;
8538;SDS011;4307;53.868;11.680;2022-10-13T00:22:05;3.33;;;2.30;;
8538;SDS011;4307;53.868;11.680;2022-10-13T00:24:32;3.60;;;2.73;;
8538;SDS011;4307;53.868;11.680;2022-10-13T00:26:58;5.00;;;2.33;;
8538;SDS011;4307;53.868;11.680;2022-10-13T00:29:25;2.73;;;2.40;;
8538;SDS011;4307;53.868;11.680;2022-10-13T00:31:51;7.90;;;2.60;;
8538;SDS011;4307;53.868;11.680;2022-10-13T00:34:18;6.87;;;2.60;;
8538;SDS011;4307;53.868;11.680;2022-10-13T00:36:45;5.27;;;2.67;;
8538;SDS011;4307;53.868;11.680;2022-10-13T00:39:13;2.53;;;2.13;;
8538;SDS011;4307;53.868;11.680;2022-10-13T00:41:39;6.50;;;2.57;;
8538;SDS011;4307;53.868;11.680;2022-10-13T00:44:52;3.37;;;2.33;;
8538;SDS011;4307;53.868;11.680;2022-10-13T00:47:12;7.93;;;2.43;;
8538;SDS011;4307;53.868;11.680;2022-10-13T00:49:39;6.77;;;2.80;;
8538;SDS011;4307;53.868;11.680;2022-10-13T00:52:06;4.43;;;2.90;;
8538;SDS011;4307;53.868;11.680;2022-10-13T00:54:32;5.80;;;2.37;;
8538;SDS011;4307;53.868;11.680;2022-10-13T00:56:59;2.97;;;2.70;;
8538;SDS011;4307;53.868;11.680;2022-10-13T00:59:28;5.77;;;2.63;;
8538;SDS011;4307;53.868;11.680;2022-10-13T01:01:55;4.40;;;2.53;;
8538;SDS011;4307;53.868;11.680;2022-10-13T01:04:26;5.73;;;2.30;;
8538;SDS011;4307;53.868;11.680;2022-10-13T01:06:55;5.07;;;2.47;;
8538;SDS011;4307;53.868;11.680;2022-10-13T01:09:23;4.60;;;2.70;;
8538;SDS011;4307;53.868;11.680;2022-10-13T01:11:54;8.50;;;3.23;;
8538;SDS011;4307;53.868;11.680;2022-10-13T01:14:28;7.70;;;2.90;;
8538;SDS011;4307;53.868;11.680;2022-10-13T01:17:00;4.97;;;2.73;;
8538;SDS011;4307;53.868;11.680;2022-10-13T01:19:45;5.47;;;2.70;;
8538;SDS011;4307;53.868;11.680;2022-10-13T01:22:34;8.13;;;3.43;;
8538;SDS011;4307;53.868;11.680;2022-10-13T01:25:11;8.73;;;3.17;;
8538;SDS011;4307;53.868;11.680;2022-10-13T01:28:00;6.50;;;3.90;;
8538;SDS011;4307;53.868;11.680;2022-10-13T01:30:36;3.60;;;3.10;;
8538;SDS011;4307;53.868;11.680;2022-10-13T01:33:12;12.00;;;4.47;;
8538;SDS011;4307;53.868;11.680;2022-10-13T01:35:52;10.83;;;3.60;;
8538;SDS011;4307;53.868;11.680;2022-10-13T01:38:32;3.50;;;3.17;;
8538;SDS011;4307;53.868;11.680;2022-10-13T01:41:03;3.63;;;2.73;;
8538;SDS011;4307;53.868;11.680;2022-10-13T01:43:37;7.47;;;3.20;;
8538;SDS011;4307;53.868;11.680;2022-10-13T01:46:09;14.90;;;3.70;;
8538;SDS011;4307;53.868;11.680;2022-10-13T01:48:41;6.27;;;3.30;;
8538;SDS011;4307;53.868;11.680;2022-10-13T01:51:10;7.13;;;3.00;;
8538;SDS011;4307;53.868;11.680;2022-10-13T01:53:41;12.73;;;3.80;;
8538;SDS011;4307;53.868;11.680;2022-10-13T01:56:08;8.90;;;4.37;;
8538;SDS011;4307;53.868;11.680;2022-10-13T01:58:36;6.47;;;4.30;;
8538;SDS011;4307;53.868;11.680;2022-10-13T02:01:06;12.33;;;4.57;;
8538;SDS011;4307;53.868;11.680;2022-10-13T02:03:46;9.27;;;4.27;;
8538;SDS011;4307;53.868;11.680;2022-10-13T02:06:21;12.67;;;4.37;;
8538;SDS011;4307;53.868;11.680;2022-10-13T02:08:54;6.20;;;3.47;;
8538;SDS011;4307;53.868;11.680;2022-10-13T02:11:24;7.97;;;3.90;;
8538;SDS011;4307;53.868;11.680;2022-10-13T02:13:53;6.10;;;3.80;;
8538;SDS011;4307;53.868;11.680;2022-10-13T02:16:27;7.27;;;3.63;;
8538;SDS011;4307;53.868;11.680;2022-10-13T02:18:56;6.47;;;4.27;;
8538;SDS011;4307;53.868;11.680;2022-10-13T02:21:24;7.80;;;4.00;;
8538;SDS011;4307;53.868;11.680;2022-10-13T02:23:51;5.90;;;3.37;;
8538;SDS011;4307;53.868;11.680;2022-10-13T02:26:17;7.07;;;3.80;;
8538;SDS011;4307;53.868;11.680;2022-10-13T02:28:44;8.83;;;3.93;;
8538;SDS011;4307;53.868;11.680;2022-10-13T02:31:11;8.97;;;3.93;;
8538;SDS011;4307;53.868;11.680;2022-10-13T02:33:39;6.97;;;3.67;;
8538;SDS011;4307;53.868;11.680;2022-10-13T02:36:06;10.53;;;3.63;;
8538;SDS011;4307;53.868;11.680;2022-10-13T02:38:33;6.50;;;3.87;;
8538;SDS011;4307;53.868;11.680;2022-10-13T02:40:59;9.47;;;3.80;;
8538;SDS011;4307;53.868;11.680;2022-10-13T02:43:26;6.97;;;4.13;;
8538;SDS011;4307;53.868;11.680;2022-10-13T02:45:53;6.77;;;3.80;;
8538;SDS011;4307;53.868;11.680;2022-10-13T02:48:20;9.40;;;3.57;;
8538;SDS011;4307;53.868;11.680;2022-10-13T02:50:48;9.63;;;3.87;;
8538;SDS011;4307;53.868;11.680;2022-10-13T02:53:14;12.00;;;4.23;;
8538;SDS011;4307;53.868;11.680;2022-10-13T02:55:41;10.20;;;3.87;;
8538;SDS011;4307;53.868;11.680;2022-10-13T02:58:07;8.47;;;3.73;;
8538;SDS011;4307;53.868;11.680;2022-10-13T03:00:34;5.43;;;3.70;;
8538;SDS011;4307;53.868;11.680;2022-10-13T03:03:03;6.10;;;3.33;;
8538;SDS011;4307;53.868;11.680;2022-10-13T03:05:30;9.07;;;4.40;;
8538;SDS011;4307;53.868;11.680;2022-10-13T03:07:58;6.00;;;4.03;;
8538;SDS011;4307;53.868;11.680;2022-10-13T03:10:25;6.43;;;4.00;;
8538;SDS011;4307;53.868;11.680;2022-10-13T03:12:52;7.00;;;3.67;;
8538;SDS011;4307;53.868;11.680;2022-10-13T03:15:19;8.73;;;3.90;;
8538;SDS011;4307;53.868;11.680;2022-10-13T03:17:46;6.67;;;3.67;;
8538;SDS011;4307;53.868;11.680;2022-10-13T03:20:12;4.93;;;3.50;;
8538;SDS011;4307;53.868;11.680;2022-10-13T03:22:39;8.63;;;3.73;;
8538;SDS011;4307;53.868;11.680;2022-10-13T03:25:08;8.00;;;3.63;;
8538;SDS011;4307;53.868;11.680;2022-10-13T03:27:34;7.47;;;3.30;;
8538;SDS011;4307;53.868;11.680;2022-10-13T03:30:01;5.67;;;3.33;;
8538;SDS011;4307;53.868;11.680;2022-10-13T03:32:28;6.07;;;3.57;;
8538;SDS011;4307;53.868;11.680;2022-10-13T03:34:55;5.87;;;3.33;;
8538;SDS011;4307;53.868;11.680;2022-10-13T03:37:22;5.83;;;3.43;;
8538;SDS011;4307;53.868;11.680;2022-10-13T03:39:49;8.10;;;4.50;;
8538;SDS011;4307;53.868;11.680;2022-10-13T03:42:17;4.20;;;3.33;;
8538;SDS011;4307;53.868;11.680;2022-10-13T03:44:43;8.17;;;3.93;;
8538;SDS011;4307;53.868;11.680;2022-10-13T03:47:10;11.93;;;4.83;;
8538;SDS011;4307;53.868;11.680;2022-10-13T03:49:36;7.40;;;4.30;;
8538;SDS011;4307;53.868;11.680;2022-10-13T03:52:03;8.77;;;4.33;;
8538;SDS011;4307;53.868;11.680;2022-10-13T03:54:30;7.90;;;3.87;;
8538;SDS011;4307;53.868;11.680;2022-10-13T03:56:57;7.63;;;4.07;;
8538;SDS011;4307;53.868;11.680;2022-10-13T03:59:25;6.27;;;3.70;;
8538;SDS011;4307;53.868;11.680;2022-10-13T04:01:53;6.77;;;3.50;;
8538;SDS011;4307;53.868;11.680;2022-10-13T04:04:20;8.37;;;4.00;;
8538;SDS011;4307;53.868;11.680;2022-10-13T04:06:46;6.37;;;3.80;;
8538;SDS011;4307;53.868;11.680;2022-10-13T04:09:13;9.73;;;4.03;;
8538;SDS011;4307;53.868;11.680;2022-10-13T04:11:39;10.97;;;4.30;;
8538;SDS011;4307;53.868;11.680;2022-10-13T04:14:06;10.27;;;3.83;;
8538;SDS011;4307;53.868;11.680;2022-10-13T04:16:34;7.67;;;4.03;;
8538;SDS011;4307;53.868;11.680;2022-10-13T04:19:01;8.43;;;4.17;;
8538;SDS011;4307;53.868;11.680;2022-10-13T04:21:30;8.10;;;4.90;;
8538;SDS011;4307;53.868;11.680;2022-10-13T04:23:58;8.07;;;4.70;;
8538;SDS011;4307;53.868;11.680;2022-10-13T04:26:27;8.47;;;4.47;;
8538;SDS011;4307;53.868;11.680;2022-10-13T04:28:55;13.67;;;5.50;;
8538;SDS011;4307;53.868;11.680;2022-10-13T04:31:21;8.03;;;4.67;;
8538;SDS011;4307;53.868;11.680;2022-10-13T04:33:50;10.17;;;4.70;;
8538;SDS011;4307;53.868;11.680;2022-10-13T04:36:18;9.23;;;4.23;;
8538;SDS011;4307;53.868;11.680;2022-10-13T04:38:46;12.33;;;4.63;;
8538;SDS011;4307;53.868;11.680;2022-10-13T04:41:13;6.07;;;4.00;;
8538;SDS011;4307;53.868;11.680;2022-10-13T04:43:41;6.83;;;4.53;;
8538;SDS011;4307;53.868;11.680;2022-10-13T04:46:09;10.83;;;4.70;;
8538;SDS011;4307;53.868;11.680;2022-10-13T04:48:39;6.50;;;4.17;;
8538;SDS011;4307;53.868;11.680;2022-10-13T04:51:08;10.53;;;5.53;;
8538;SDS011;4307;53.868;11.680;2022-10-13T04:53:37;10.00;;;4.70;;
8538;SDS011;4307;53.868;11.680;2022-10-13T04:56:04;14.20;;;5.10;;
8538;SDS011;4307;53.868;11.680;2022-10-13T04:58:33;8.40;;;4.90;;
8538;SDS011;4307;53.868;11.680;2022-10-13T05:01:00;12.20;;;4.90;;
8538;SDS011;4307;53.868;11.680;2022-10-13T05:03:27;15.70;;;4.67;;
8538;SDS011;4307;53.868;11.680;2022-10-13T05:05:54;8.70;;;4.30;;
8538;SDS011;4307;53.868;11.680;2022-10-13T05:08:23;8.67;;;4.13;;
8538;SDS011;4307;53.868;11.680;2022-10-13T05:10:54;8.50;;;4.77;;
8538;SDS011;4307;53.868;11.680;2022-10-13T05:13:21;10.43;;;4.80;;
8538;SDS011;4307;53.868;11.680;2022-10-13T05:15:48;9.73;;;4.53;;
8538;SDS011;4307;53.868;11.680;2022-10-13T05:18:15;8.73;;;4.70;;
8538;SDS011;4307;53.868;11.680;2022-10-13T05:20:41;7.70;;;4.90;;
8538;SDS011;4307;53.868;11.680;2022-10-13T05:23:08;11.90;;;5.13;;
8538;SDS011;4307;53.868;11.680;2022-10-13T05:25:37;9.87;;;4.83;;
8538;SDS011;4307;53.868;11.680;2022-10-13T05:28:04;8.80;;;4.97;;
8538;SDS011;4307;53.868;11.680;2022-10-13T05:30:32;11.63;;;4.53;;
8538;SDS011;4307;53.868;11.680;2022-10-13T05:32:58;8.70;;;4.97;;
8538;SDS011;4307;53.868;11.680;2022-10-13T05:35:25;12.03;;;4.63;;
8538;SDS011;4307;53.868;11.680;2022-10-13T05:37:53;10.17;;;5.27;;
8538;SDS011;4307;53.868;11.680;2022-10-13T05:40:19;10.90;;;4.73;;
8538;SDS011;4307;53.868;11.680;2022-10-13T05:42:48;12.43;;;5.10;;
8538;SDS011;4307;53.868;11.680;2022-10-13T05:45:15;8.80;;;4.73;;
8538;SDS011;4307;53.868;11.680;2022-10-13T05:47:44;7.93;;;4.87;;
8538;SDS011;4307;53.868;11.680;2022-10-13T05:50:11;9.80;;;4.80;;
8538;SDS011;4307;53.868;11.680;2022-10-13T05:52:38;7.67;;;4.53;;
8538;SDS011;4307;53.868;11.680;2022-10-13T05:55:04;7.80;;;4.77;;
8538;SDS011;4307;53.868;11.680;2022-10-13T05:57:35;8.90;;;4.50;;
8538;SDS011;4307;53.868;11.680;2022-10-13T06:00:07;11.33;;;5.00;;
8538;SDS011;4307;53.868;11.680;2022-10-13T06:02:36;14.90;;;5.10;;
8538;SDS011;4307;53.868;11.680;2022-10-13T06:05:05;15.50;;;4.57;;
8538;SDS011;4307;53.868;11.680;2022-10-13T06:07:37;14.13;;;5.53;;
8538;SDS011;4307;53.868;11.680;2022-10-13T06:10:04;7.97;;;5.03;;
8538;SDS011;4307;53.868;11.680;2022-10-13T06:12:31;11.40;;;5.70;;
8538;SDS011;4307;53.868;11.680;2022-10-13T06:14:58;10.17;;;4.90;;
8538;SDS011;4307;53.868;11.680;2022-10-13T06:17:26;7.70;;;5.73;;
8538;SDS011;4307;53.868;11.680;2022-10-13T06:19:53;11.60;;;5.67;;
8538;SDS011;4307;53.868;11.680;2022-10-13T06:22:19;12.43;;;5.53;;
8538;SDS011;4307;53.868;11.680;2022-10-13T06:24:46;9.67;;;5.67;;
8538;SDS011;4307;53.868;11.680;2022-10-13T06:27:13;9.13;;;5.10;;
8538;SDS011;4307;53.868;11.680;2022-10-13T06:29:40;10.37;;;5.23;;
8538;SDS011;4307;53.868;11.680;2022-10-13T06:32:06;9.33;;;5.50;;
8538;SDS011;4307;53.868;11.680;2022-10-13T06:34:34;12.73;;;5.40;;
8538;SDS011;4307;53.868;11.680;2022-10-13T06:37:01;11.30;;;5.30;;
8538;SDS011;4307;53.868;11.680;2022-10-13T06:39:27;11.10;;;5.53;;
8538;SDS011;4307;53.868;11.680;2022-10-13T06:41:54;10.47;;;6.13;;
8538;SDS011;4307;53.868;11.680;2022-10-13T06:44:21;7.83;;;5.67;;
8538;SDS011;4307;53.868;11.680;2022-10-13T06:46:47;10.53;;;6.13;;
8538;SDS011;4307;53.868;11.680;2022-10-13T06:49:14;12.77;;;5.83;;
8538;SDS011;4307;53.868;11.680;2022-10-13T06:51:42;9.07;;;5.27;;
8538;SDS011;4307;53.868;11.680;2022-10-13T06:54:09;14.57;;;5.77;;
8538;SDS011;4307;53.868;11.680;2022-10-13T06:56:35;10.87;;;5.63;;
8538;SDS011;4307;53.868;11.680;2022-10-13T06:59:02;6.27;;;5.37;;
8538;SDS011;4307;53.868;11.680;2022-10-13T07:01:29;9.83;;;5.60;;
8538;SDS011;4307;53.868;11.680;2022-10-13T07:03:55;11.83;;;6.10;;
8538;SDS011;4307;53.868;11.680;2022-10-13T07:06:22;11.33;;;6.00;;
8538;SDS011;4307;53.868;11.680;2022-10-13T07:08:51;11.87;;;5.80;;
8538;SDS011;4307;53.868;11.680;2022-10-13T07:11:17;9.13;;;5.60;;
8538;SDS011;4307;53.868;11.680;2022-10-13T07:13:44;12.27;;;6.30;;
8538;SDS011;4307;53.868;11.680;2022-10-13T07:16:11;13.27;;;5.73;;
8538;SDS011;4307;53.868;11.680;2022-10-13T07:18:37;9.33;;;5.63;;
8538;SDS011;4307;53.868;11.680;2022-10-13T07:21:04;11.47;;;5.90;;
8538;SDS011;4307;53.868;11.680;2022-10-13T07:23:31;7.17;;;5.77;;
8538;SDS011;4307;53.868;11.680;2022-10-13T07:25:59;8.77;;;6.20;;
8538;SDS011;4307;53.868;11.680;2022-10-13T07:28:26;13.50;;;6.00;;
8538;SDS011;4307;53.868;11.680;2022-10-13T07:30:53;10.07;;;6.00;;
8538;SDS011;4307;53.868;11.680;2022-10-13T07:33:19;8.67;;;5.27;;
8538;SDS011;4307;53.868;11.680;2022-10-13T07:35:46;13.50;;;6.27;;
8538;SDS011;4307;53.868;11.680;2022-10-13T07:38:12;8.63;;;5.17;;
8538;SDS011;4307;53.868;11.680;2022-10-13T07:40:39;11.97;;;5.97;;
8538;SDS011;4307;53.868;11.680;2022-10-13T07:43:07;16.13;;;5.80;;
8538;SDS011;4307;53.868;11.680;2022-10-13T07:45:34;14.17;;;5.80;;
8538;SDS011;4307;53.868;11.680;2022-10-13T07:48:00;12.67;;;5.80;;
8538;SDS011;4307;53.868;11.680;2022-10-13T07:50:27;10.27;;;5.63;;
8538;SDS011;4307;53.868;11.680;2022-10-13T07:52:54;8.00;;;5.17;;
8538;SDS011;4307;53.868;11.680;2022-10-13T07:55:20;10.77;;;6.00;;
8538;SDS011;4307;53.868;11.680;2022-10-13T07:57:47;8.70;;;5.20;;
8538;SDS011;4307;53.868;11.680;2022-10-13T08:00:15;9.20;;;4.80;;
8538;SDS011;4307;53.868;11.680;2022-10-13T08:02:42;7.80;;;5.90;;
8538;SDS011;4307;53.868;11.680;2022-10-13T08:05:09;11.30;;;5.60;;
8538;SDS011;4307;53.868;11.680;2022-10-13T08:07:36;11.30;;;5.67;;
8538;SDS011;4307;53.868;11.680;2022-10-13T08:10:03;10.53;;;5.20;;
8538;SDS011;4307;53.868;11.680;2022-10-13T08:12:30;7.40;;;5.80;;
8538;SDS011;4307;53.868;11.680;2022-10-13T08:14:57;8.97;;;5.30;;
8538;SDS011;4307;53.868;11.680;2022-10-13T08:17:25;8.77;;;5.53;;
8538;SDS011;4307;53.868;11.680;2022-10-13T08:19:52;10.47;;;5.53;;
8538;SDS011;4307;53.868;11.680;2022-10-13T08:22:18;10.47;;;6.03;;
8538;SDS011;4307;53.868;11.680;2022-10-13T08:24:45;14.80;;;6.07;;
8538;SDS011;4307;53.868;11.680;2022-10-13T08:27:13;8.40;;;5.37;;
8538;SDS011;4307;53.868;11.680;2022-10-13T08:29:44;11.20;;;6.10;;
8538;SDS011;4307;53.868;11.680;2022-10-13T08:32:11;8.50;;;5.27;;
8538;SDS011;4307;53.868;11.680;2022-10-13T08:34:39;7.43;;;4.53;;
8538;SDS011;4307;53.868;11.680;2022-10-13T08:37:10;13.47;;;6.33;;
8538;SDS011;4307;53.868;11.680;2022-10-13T08:39:38;12.03;;;6.20;;
8538;SDS011;4307;53.868;11.680;2022-10-13T08:42:10;9.77;;;5.83;;
8538;SDS011;4307;53.868;11.680;2022-10-13T08:44:40;10.17;;;6.10;;
8538;SDS011;4307;53.868;11.680;2022-10-13T08:47:11;12.77;;;6.00;;
8538;SDS011;4307;53.868;11.680;2022-10-13T08:49:45;10.20;;;5.60;;
8538;SDS011;4307;53.868;11.680;2022-10-13T08:52:12;15.00;;;7.13;;
8538;SDS011;4307;53.868;11.680;2022-10-13T08:54:44;10.87;;;5.20;;
8538;SDS011;4307;53.868;11.680;2022-10-13T08:57:10;10.43;;;6.30;;
8538;SDS011;4307;53.868;11.680;2022-10-13T08:59:37;11.33;;;6.77;;
8538;SDS011;4307;53.868;11.680;2022-10-13T09:02:07;12.47;;;7.40;;
8538;SDS011;4307;53.868;11.680;2022-10-13T09:04:38;13.77;;;7.43;;
8538;SDS011;4307;53.868;11.680;2022-10-13T09:07:10;12.43;;;7.83;;
8538;SDS011;4307;53.868;11.680;2022-10-13T09:09:40;8.10;;;6.10;;
8538;SDS011;4307;53.868;11.680;2022-10-13T09:12:09;16.07;;;7.20;;
8538;SDS011;4307;53.868;11.680;2022-10-13T09:14:37;10.43;;;6.40;;
8538;SDS011;4307;53.868;11.680;2022-10-13T09:17:12;11.33;;;6.80;;
8538;SDS011;4307;53.868;11.680;2022-10-13T09:19:42;10.67;;;6.43;;
8538;SDS011;4307;53.868;11.680;2022-10-13T09:22:18;10.43;;;6.33;;
8538;SDS011;4307;53.868;11.680;2022-10-13T09:24:51;14.20;;;6.83;;
8538;SDS011;4307;53.868;11.680;2022-10-13T09:27:39;12.77;;;6.43;;
8538;SDS011;4307;53.868;11.680;2022-10-13T09:30:17;11.00;;;7.47;;
8538;SDS011;4307;53.868;11.680;2022-10-13T09:32:53;8.87;;;6.43;;
8538;SDS011;4307;53.868;11.680;2022-10-13T09:35:30;12.30;;;6.40;;
8538;SDS011;4307;53.868;11.680;2022-10-13T09:38:04;14.47;;;6.67;;
8538;SDS011;4307;53.868;11.680;2022-10-13T09:40:34;10.47;;;6.87;;
8538;SDS011;4307;53.868;11.680;2022-10-13T09:43:16;9.17;;;6.57;;
8538;SDS011;4307;53.868;11.680;2022-10-13T09:45:50;16.63;;;7.53;;
8538;SDS011;4307;53.868;11.680;2022-10-13T09:48:18;10.60;;;7.20;;
8538;SDS011;4307;53.868;11.680;2022-10-13T09:50:49;10.90;;;6.30;;
8538;SDS011;4307;53.868;11.680;2022-10-13T09:53:24;12.00;;;6.80;;
8538;SDS011;4307;53.868;11.680;2022-10-13T09:56:05;12.10;;;6.77;;
8538;SDS011;4307;53.868;11.680;2022-10-13T09:58:34;11.67;;;6.83;;
8538;SDS011;4307;53.868;11.680;2022-10-13T10:01:07;12.90;;;6.70;;
8538;SDS011;4307;53.868;11.680;2022-10-13T10:03:43;17.77;;;7.07;;
8538;SDS011;4307;53.868;11.680;2022-10-13T10:06:10;14.73;;;7.73;;
8538;SDS011;4307;53.868;11.680;2022-10-13T10:08:41;11.90;;;7.20;;
8538;SDS011;4307;53.868;11.680;2022-10-13T10:11:14;11.33;;;7.97;;
8538;SDS011;4307;53.868;11.680;2022-10-13T10:13:44;12.70;;;7.47;;
8538;SDS011;4307;53.868;11.680;2022-10-13T10:16:11;11.03;;;7.23;;
8538;SDS011;4307;53.868;11.680;2022-10-13T10:18:45;12.63;;;6.40;;
8538;SDS011;4307;53.868;11.680;2022-10-13T10:21:16;11.87;;;6.63;;
8538;SDS011;4307;53.868;11.680;2022-10-13T10:23:53;12.43;;;7.37;;
8538;SDS011;4307;53.868;11.680;2022-10-13T10:26:27;11.30;;;7.27;;
8538;SDS011;4307;53.868;11.680;2022-10-13T10:29:09;11.77;;;7.03;;
8538;SDS011;4307;53.868;11.680;2022-10-13T10:31:47;12.37;;;7.10;;
8538;SDS011;4307;53.868;11.680;2022-10-13T10:34:30;16.07;;;7.83;;
8538;SDS011;4307;53.868;11.680;2022-10-13T10:37:15;16.30;;;7.70;;
8538;SDS011;4307;53.868;11.680;2022-10-13T10:39:47;10.73;;;7.20;;
8538;SDS011;4307;53.868;11.680;2022-10-13T10:42:19;14.20;;;8.23;;
8538;SDS011;4307;53.868;11.680;2022-10-13T10:45:03;13.27;;;7.70;;
8538;SDS011;4307;53.868;11.680;2022-10-13T10:47:39;13.40;;;7.20;;
8538;SDS011;4307;53.868;11.680;2022-10-13T10:50:12;9.00;;;6.97;;
8538;SDS011;4307;53.868;11.680;2022-10-13T10:52:41;15.37;;;8.03;;
8538;SDS011;4307;53.868;11.680;2022-10-13T10:55:18;15.20;;;7.40;;
8538;SDS011;4307;53.868;11.680;2022-10-13T10:57:50;15.73;;;7.63;;
8538;SDS011;4307;53.868;11.680;2022-10-13T11:00:22;15.00;;;7.33;;
8538;SDS011;4307;53.868;11.680;2022-10-13T11:02:51;14.13;;;7.17;;
8538;SDS011;4307;53.868;11.680;2022-10-13T11:05:24;13.60;;;6.90;;
8538;SDS011;4307;53.868;11.680;2022-10-13T11:07:56;16.40;;;7.37;;
8538;SDS011;4307;53.868;11.680;2022-10-13T11:10:26;12.00;;;6.97;;
8538;SDS011;4307;53.868;11.680;2022-10-13T11:15:50;15.20;;;6.80;;
8538;SDS011;4307;53.868;11.680;2022-10-13T11:21:22;12.63;;;6.57;;
8538;SDS011;4307;53.868;11.680;2022-10-13T11:23:49;12.03;;;6.77;;
8538;SDS011;4307;53.868;11.680;2022-10-13T11:26:27;12.10;;;6.57;;
8538;SDS011;4307;53.868;11.680;2022-10-13T11:28:56;8.50;;;5.90;;
8538;SDS011;4307;53.868;11.680;2022-10-13T11:31:25;12.60;;;6.63;;
8538;SDS011;4307;53.868;11.680;2022-10-13T11:34:23;11.30;;;5.80;;
8538;SDS011;4307;53.868;11.680;2022-10-13T11:36:55;11.07;;;6.20;;
8538;SDS011;4307;53.868;11.680;2022-10-13T11:42:31;9.87;;;5.60;;
8538;SDS011;4307;53.868;11.680;2022-10-13T11:45:22;10.73;;;5.90;;
8538;SDS011;4307;53.868;11.680;2022-10-13T11:51:04;13.67;;;6.80;;
8538;SDS011;4307;53.868;11.680;2022-10-13T11:53:40;11.33;;;7.10;;
8538;SDS011;4307;53.868;11.680;2022-10-13T11:56:20;13.13;;;7.40;;
8538;SDS011;4307;53.868;11.680;2022-10-13T11:58:58;16.90;;;6.83;;
8538;SDS011;4307;53.868;11.680;2022-10-13T12:01:24;12.27;;;6.40;;
8538;SDS011;4307;53.868;11.680;2022-10-13T12:03:51;10.87;;;6.60;;
8538;SDS011;4307;53.868;11.680;2022-10-13T12:06:24;9.63;;;5.90;;
8538;SDS011;4307;53.868;11.680;2022-10-13T12:08:57;15.47;;;6.83;;
8538;SDS011;4307;53.868;11.680;2022-10-13T12:11:27;9.97;;;6.83;;
8538;SDS011;4307;53.868;11.680;2022-10-13T12:13:57;11.10;;;7.53;;
8538;SDS011;4307;53.868;11.680;2022-10-13T12:16:26;13.57;;;7.30;;
8538;SDS011;4307;53.868;11.680;2022-10-13T12:18:59;14.77;;;8.23;;
8538;SDS011;4307;53.868;11.680;2022-10-13T12:21:32;10.37;;;7.00;;
8538;SDS011;4307;53.868;11.680;2022-10-13T12:24:05;11.13;;;7.57;;
8538;SDS011;4307;53.868;11.680;2022-10-13T12:26:33;14.40;;;7.77;;
8538;SDS011;4307;53.868;11.680;2022-10-13T12:29:02;11.10;;;6.97;;
8538;SDS011;4307;53.868;11.680;2022-10-13T12:31:37;11.23;;;7.13;;
8538;SDS011;4307;53.868;11.680;2022-10-13T12:34:12;12.00;;;6.93;;
8538;SDS011;4307;53.868;11.680;2022-10-13T12:36:44;13.37;;;7.67;;
8538;SDS011;4307;53.868;11.680;2022-10-13T12:39:17;12.50;;;7.00;;
8538;SDS011;4307;53.868;11.680;2022-10-13T12:41:45;11.13;;;6.87;;
8538;SDS011;4307;53.868;11.680;2022-10-13T12:44:15;10.13;;;6.13;;
8538;SDS011;4307;53.868;11.680;2022-10-13T12:46:46;14.77;;;6.93;;
8538;SDS011;4307;53.868;11.680;2022-10-13T12:51:52;12.40;;;6.93;;
8538;SDS011;4307;53.868;11.680;2022-10-13T12:54:22;13.43;;;6.97;;
8538;SDS011;4307;53.868;11.680;2022-10-13T12:56:52;12.37;;;7.30;;
8538;SDS011;4307;53.868;11.680;2022-10-13T12:59:23;14.60;;;7.47;;
8538;SDS011;4307;53.868;11.680;2022-10-13T13:01:53;13.43;;;7.17;;
8538;SDS011;4307;53.868;11.680;2022-10-13T13:04:27;13.13;;;7.13;;
8538;SDS011;4307;53.868;11.680;2022-10-13T13:07:02;12.00;;;6.77;;
8538;SDS011;4307;53.868;11.680;2022-10-13T13:09:30;14.43;;;7.70;;
8538;SDS011;4307;53.868;11.680;2022-10-13T13:12:17;8.53;;;7.10;;
8538;SDS011;4307;53.868;11.680;2022-10-13T13:14:53;10.23;;;5.83;;
8538;SDS011;4307;53.868;11.680;2022-10-13T13:17:22;11.30;;;7.33;;
8538;SDS011;4307;53.868;11.680;2022-10-13T13:19:54;13.17;;;8.73;;
8538;SDS011;4307;53.868;11.680;2022-10-13T13:22:22;13.93;;;7.50;;
8538;SDS011;4307;53.868;11.680;2022-10-13T13:24:49;13.00;;;7.20;;
8538;SDS011;4307;53.868;11.680;2022-10-13T13:27:18;14.13;;;7.13;;
8538;SDS011;4307;53.868;11.680;2022-10-13T13:29:50;13.47;;;7.27;;
8538;SDS011;4307;53.868;11.680;2022-10-13T13:32:19;14.73;;;7.87;;
8538;SDS011;4307;53.868;11.680;2022-10-13T13:34:48;9.20;;;6.70;;
8538;SDS011;4307;53.868;11.680;2022-10-13T13:37:16;12.37;;;6.90;;
8538;SDS011;4307;53.868;11.680;2022-10-13T13:39:50;8.67;;;6.27;;
8538;SDS011;4307;53.868;11.680;2022-10-13T13:42:16;14.47;;;7.37;;
8538;SDS011;4307;53.868;11.680;2022-10-13T13:44:43;11.97;;;6.90;;
8538;SDS011;4307;53.868;11.680;2022-10-13T13:47:18;9.80;;;7.57;;
8538;SDS011;4307;53.868;11.680;2022-10-13T13:49:46;8.77;;;6.13;;
8538;SDS011;4307;53.868;11.680;2022-10-13T13:52:14;13.30;;;6.73;;
8538;SDS011;4307;53.868;11.680;2022-10-13T13:54:41;11.50;;;6.70;;
8538;SDS011;4307;53.868;11.680;2022-10-13T13:57:08;14.00;;;7.40;;
8538;SDS011;4307;53.868;11.680;2022-10-13T13:59:35;15.63;;;7.23;;
8538;SDS011;4307;53.868;11.680;2022-10-13T14:02:02;12.23;;;6.37;;
8538;SDS011;4307;53.868;11.680;2022-10-13T14:04:31;11.37;;;6.90;;
8538;SDS011;4307;53.868;11.680;2022-10-13T14:06:58;12.27;;;7.03;;
8538;SDS011;4307;53.868;11.680;2022-10-13T14:09:25;10.60;;;6.30;;
8538;SDS011;4307;53.868;11.680;2022-10-13T14:11:51;14.83;;;6.63;;
8538;SDS011;4307;53.868;11.680;2022-10-13T14:14:18;7.63;;;5.53;;
8538;SDS011;4307;53.868;11.680;2022-10-13T14:16:45;11.33;;;6.43;;
8538;SDS011;4307;53.868;11.680;2022-10-13T14:19:11;16.00;;;6.73;;
8538;SDS011;4307;53.868;11.680;2022-10-13T14:21:39;9.43;;;6.73;;
8538;SDS011;4307;53.868;11.680;2022-10-13T14:24:06;10.87;;;6.20;;
8538;SDS011;4307;53.868;11.680;2022-10-13T14:26:34;11.07;;;6.60;;
8538;SDS011;4307;53.868;11.680;2022-10-13T14:29:01;10.10;;;6.53;;
8538;SDS011;4307;53.868;11.680;2022-10-13T14:31:28;11.83;;;6.03;;
8538;SDS011;4307;53.868;11.680;2022-10-13T14:33:55;13.83;;;6.60;;
8538;SDS011;4307;53.868;11.680;2022-10-13T14:36:22;12.80;;;6.13;;
8538;SDS011;4307;53.868;11.680;2022-10-13T14:38:50;10.10;;;6.47;;
8538;SDS011;4307;53.868;11.680;2022-10-13T14:41:18;11.20;;;5.87;;
8538;SDS011;4307;53.868;11.680;2022-10-13T14:43:45;9.13;;;6.17;;
8538;SDS011;4307;53.868;11.680;2022-10-13T14:46:12;11.53;;;6.50;;
8538;SDS011;4307;53.868;11.680;2022-10-13T14:48:39;12.07;;;6.23;;
8538;SDS011;4307;53.868;11.680;2022-10-13T14:51:05;10.97;;;6.93;;
8538;SDS011;4307;53.868;11.680;2022-10-13T14:53:33;8.43;;;6.20;;
8538;SDS011;4307;53.868;11.680;2022-10-13T14:56:02;10.70;;;6.10;;
8538;SDS011;4307;53.868;11.680;2022-10-13T14:58:38;11.77;;;5.90;;
8538;SDS011;4307;53.868;11.680;2022-10-13T15:01:05;11.70;;;6.60;;
8538;SDS011;4307;53.868;11.680;2022-10-13T15:03:31;9.67;;;7.10;;
8538;SDS011;4307;53.868;11.680;2022-10-13T15:05:58;10.27;;;6.90;;
8538;SDS011;4307;53.868;11.680;2022-10-13T15:08:25;15.70;;;6.57;;
8538;SDS011;4307;53.868;11.680;2022-10-13T15:10:57;10.10;;;6.20;;
8538;SDS011;4307;53.868;11.680;2022-10-13T15:13:25;13.30;;;6.63;;
8538;SDS011;4307;53.868;11.680;2022-10-13T15:15:52;10.00;;;6.83;;
8538;SDS011;4307;53.868;11.680;2022-10-13T15:18:18;11.30;;;6.43;;
8538;SDS011;4307;53.868;11.680;2022-10-13T15:20:45;9.17;;;6.57;;